createdAt,value
2018-06-05T00:02:03.874Z,25.47
2018-06-05T00:04:33.588Z,28.57
2018-06-05T00:07:03.226Z,26.57
2018-06-05T00:09:32.872Z,26.60
2018-06-05T00:12:02.613Z,25.80
2018-06-05T00:14:32.278Z,27.90
2018-06-05T00:17:01.912Z,28.90
2018-06-05T00:19:31.324Z,29.93
2018-06-05T00:22:00.985Z,27.27
2018-06-05T00:24:30.737Z,28.20
2018-06-05T00:27:00.366Z,28.20
2018-06-05T00:29:30.196Z,28.03
2018-06-05T00:31:59.813Z,27.17
2018-06-05T00:34:29.489Z,28.07
2018-06-05T00:36:58.898Z,27.43
2018-06-05T00:39:28.573Z,28.90
2018-06-05T00:41:58.219Z,28.90
2018-06-05T00:44:27.920Z,29.10
2018-06-05T00:46:57.656Z,28.57
2018-06-05T00:49:27.040Z,31.13
2018-06-05T00:52:08.455Z,29.80
2018-06-05T00:54:38.138Z,29.90
2018-06-05T00:57:07.906Z,28.30
2018-06-05T00:59:37.511Z,30.93
2018-06-05T01:02:07.302Z,31.17
2018-06-05T01:04:36.980Z,32.57
2018-06-05T01:07:06.869Z,30.43
2018-06-05T01:09:36.558Z,30.50
2018-06-05T01:12:06.531Z,33.77
2018-06-05T01:14:36.168Z,32.60
2018-06-05T01:17:05.851Z,32.90
2018-06-05T01:21:56.569Z,33.00
2018-06-05T01:24:26.292Z,32.80
2018-06-05T01:26:55.934Z,31.83
2018-06-05T01:29:25.607Z,32.17
2018-06-05T01:31:55.316Z,32.80
2018-06-05T01:34:24.975Z,34.70
2018-06-05T01:36:54.732Z,36.27
2018-06-05T01:39:24.389Z,36.50
2018-06-05T01:41:54.008Z,38.37
2018-06-05T01:44:23.369Z,40.37
2018-06-05T01:46:52.973Z,43.00
2018-06-05T01:49:22.681Z,37.47
2018-06-05T01:51:52.318Z,40.90
2018-06-05T01:54:22.027Z,42.90
2018-06-05T01:56:51.762Z,39.03
2018-06-05T01:59:21.443Z,40.20
2018-06-05T02:01:51.155Z,42.43
2018-06-05T02:04:20.781Z,41.70
2018-06-05T02:06:50.512Z,42.47
2018-06-05T02:09:20.177Z,40.20
2018-06-05T02:11:49.841Z,42.37
2018-06-05T02:14:19.466Z,45.00
2018-06-05T02:16:49.101Z,41.83
2018-06-05T02:19:18.812Z,41.87
2018-06-05T02:21:48.473Z,42.73
2018-06-05T02:24:18.115Z,43.50
2018-06-05T02:26:47.775Z,43.20
2018-06-05T02:29:17.399Z,43.17
2018-06-05T02:31:46.994Z,40.90
2018-06-05T02:34:16.723Z,42.30
2018-06-05T02:36:46.370Z,44.33
2018-06-05T02:39:16.033Z,43.93
2018-06-05T02:41:45.652Z,43.43
2018-06-05T02:44:15.328Z,45.47
2018-06-05T02:46:45.003Z,42.47
2018-06-05T02:49:14.632Z,43.80
2018-06-05T02:51:44.290Z,43.70
2018-06-05T02:54:13.950Z,42.10
2018-06-05T02:56:43.711Z,44.17
2018-06-05T02:59:13.349Z,43.20
2018-06-05T03:01:43.064Z,42.23
2018-06-05T03:04:12.852Z,40.07
2018-06-05T03:06:42.532Z,41.80
2018-06-05T03:09:11.888Z,42.70
2018-06-05T03:11:41.596Z,42.10
2018-06-05T03:14:11.214Z,42.07
2018-06-05T03:16:40.835Z,41.07
2018-06-05T03:19:10.533Z,40.10
2018-06-05T03:21:40.159Z,39.40
2018-06-05T03:24:09.840Z,40.50
2018-06-05T03:26:39.468Z,40.57
2018-06-05T03:29:09.093Z,41.37
2018-06-05T03:31:38.720Z,39.40
2018-06-05T03:34:08.429Z,39.93
2018-06-05T03:36:38.165Z,39.33
2018-06-05T03:39:07.877Z,38.77
2018-06-05T03:41:37.241Z,39.93
2018-06-05T03:44:06.974Z,42.10
2018-06-05T03:46:36.944Z,40.73
2018-06-05T03:49:07.012Z,38.90
2018-06-05T03:51:36.699Z,41.27
2018-06-05T03:54:06.575Z,41.47
2018-06-05T03:56:35.827Z,36.17
2018-06-05T03:59:05.537Z,39.17
2018-06-05T04:01:35.340Z,40.37
2018-06-05T04:04:05.109Z,41.67
2018-06-05T04:06:34.764Z,39.77
2018-06-05T04:09:05.578Z,41.27
2018-06-05T04:11:35.364Z,40.73
2018-06-05T04:14:05.040Z,39.13
2018-06-05T04:16:34.667Z,38.80
2018-06-05T04:19:04.290Z,37.87
2018-06-05T04:21:33.952Z,37.33
2018-06-05T04:24:03.770Z,37.70
2018-06-05T04:26:33.388Z,38.90
2018-06-05T04:29:03.024Z,39.97
2018-06-05T04:31:32.678Z,42.07
2018-06-05T04:34:01.982Z,39.40
2018-06-05T04:36:31.705Z,41.27
2018-06-05T04:39:01.294Z,39.17
2018-06-05T04:41:30.973Z,39.03
2018-06-05T04:44:00.597Z,40.93
2018-06-05T04:46:30.257Z,37.10
2018-06-05T04:48:59.958Z,35.67
2018-06-05T04:51:29.598Z,38.30
2018-06-05T04:53:59.290Z,38.10
2018-06-05T04:56:28.917Z,38.70
2018-06-05T04:58:58.688Z,35.80
2018-06-05T05:01:28.371Z,36.10
2018-06-05T05:03:58.006Z,34.93
2018-06-05T05:06:27.629Z,33.30
2018-06-05T05:08:57.398Z,35.50
2018-06-05T05:11:27.224Z,33.87
2018-06-05T05:13:56.901Z,33.60
2018-06-05T05:16:26.650Z,33.63
2018-06-05T05:18:56.313Z,35.13
2018-06-05T05:21:25.998Z,34.77
2018-06-05T05:23:55.689Z,31.77
2018-06-05T05:26:25.378Z,32.80
2018-06-05T05:28:55.025Z,32.33
2018-06-05T05:31:24.802Z,31.87
2018-06-05T05:33:54.441Z,31.30
2018-06-05T05:36:24.222Z,32.50
2018-06-05T05:38:53.966Z,30.33
2018-06-05T05:41:23.626Z,31.13
2018-06-05T05:43:53.281Z,30.40
2018-06-05T05:46:22.950Z,30.90
2018-06-05T05:48:52.621Z,31.00
2018-06-05T05:51:22.351Z,28.23
2018-06-05T05:53:52.249Z,26.67
2018-06-05T05:56:21.950Z,28.13
2018-06-05T05:58:51.584Z,30.37
2018-06-05T06:01:21.333Z,28.43
2018-06-05T06:03:50.969Z,27.70
2018-06-05T06:06:20.663Z,27.20
2018-06-05T06:08:50.301Z,31.67
2018-06-05T06:11:19.996Z,29.20
2018-06-05T06:13:49.720Z,29.33
2018-06-05T06:16:19.373Z,28.67
2018-06-05T06:18:49.109Z,28.07
2018-06-05T06:21:18.777Z,28.80
2018-06-05T06:23:48.425Z,25.83
2018-06-05T06:26:18.390Z,29.43
2018-06-05T06:28:48.170Z,28.27
2018-06-05T06:31:17.802Z,28.00
2018-06-05T06:33:47.196Z,28.30
2018-06-05T06:36:16.538Z,27.97
2018-06-05T06:38:46.194Z,25.63
2018-06-05T06:41:16.509Z,26.80
2018-06-05T06:43:46.160Z,23.80
2018-06-05T06:46:15.452Z,28.00
2018-06-05T06:48:45.225Z,24.80
2018-06-05T06:51:14.851Z,25.40
2018-06-05T06:53:44.572Z,25.67
2018-06-05T06:56:14.173Z,26.33
2018-06-05T06:58:43.825Z,25.33
2018-06-05T07:01:13.444Z,26.90
2018-06-05T07:03:42.761Z,24.30
2018-06-05T07:06:12.441Z,26.57
2018-06-05T07:08:42.090Z,24.67
2018-06-05T07:11:11.730Z,26.23
2018-06-05T07:13:41.374Z,23.60
2018-06-05T07:16:10.981Z,24.37
2018-06-05T07:18:40.597Z,24.60
2018-06-05T07:21:10.231Z,23.70
2018-06-05T07:23:39.874Z,24.60
2018-06-05T07:26:09.533Z,25.00
2018-06-05T07:28:39.211Z,25.33
2018-06-05T07:31:08.813Z,24.30
2018-06-05T07:33:38.436Z,24.57
2018-06-05T07:36:08.189Z,24.47
2018-06-05T07:38:37.860Z,21.63
2018-06-05T07:41:07.485Z,24.00
2018-06-05T07:43:37.097Z,23.10
2018-06-05T07:46:06.840Z,26.70
2018-06-05T07:48:36.513Z,21.60
2018-06-05T07:51:06.196Z,23.33
2018-06-05T07:53:35.910Z,24.60
2018-06-05T07:56:06.728Z,24.00
2018-06-05T07:58:36.068Z,25.07
2018-06-05T08:01:05.690Z,25.33
2018-06-05T08:03:35.458Z,27.47
2018-06-05T08:06:04.880Z,27.77
2018-06-05T08:08:34.581Z,25.47
2018-06-05T08:11:03.899Z,26.20
2018-06-05T08:13:33.525Z,28.20
2018-06-05T08:16:03.171Z,30.00
2018-06-05T08:18:32.840Z,29.20
2018-06-05T08:21:02.516Z,27.10
2018-06-05T08:23:32.211Z,28.50
2018-06-05T08:26:01.888Z,27.30
2018-06-05T08:28:31.554Z,28.10
2018-06-05T08:31:01.186Z,27.00
2018-06-05T08:33:30.960Z,27.10
2018-06-05T08:36:00.714Z,29.37
2018-06-05T08:38:30.017Z,29.73
2018-06-05T08:40:59.662Z,28.80
2018-06-05T08:43:29.465Z,28.50
2018-06-05T08:45:59.152Z,25.77
2018-06-05T08:48:28.501Z,28.87
2018-06-05T08:50:58.173Z,26.90
2018-06-05T08:53:27.816Z,25.87
2018-06-05T08:55:57.419Z,31.13
2018-06-05T08:58:27.100Z,27.37
2018-06-05T09:00:57.372Z,27.77
2018-06-05T09:03:27.074Z,28.90
2018-06-05T09:05:56.753Z,38.93
2018-06-05T09:08:26.093Z,44.53
2018-06-05T09:10:55.878Z,38.30
2018-06-05T09:13:25.470Z,30.97
2018-06-05T09:15:55.158Z,29.83
2018-06-05T09:18:24.841Z,30.07
2018-06-05T09:20:54.497Z,30.97
2018-06-05T09:23:24.257Z,29.60
2018-06-05T09:25:53.909Z,28.93
2018-06-05T09:28:23.657Z,31.00
2018-06-05T09:30:53.412Z,31.47
2018-06-05T09:33:23.065Z,30.87
2018-06-05T09:35:52.729Z,29.53
2018-06-05T09:38:22.429Z,30.93
2018-06-05T09:40:52.196Z,27.00
2018-06-05T09:43:21.972Z,30.67
2018-06-05T09:45:51.612Z,29.87
2018-06-05T09:48:21.378Z,32.23
2018-06-05T09:50:51.032Z,31.30
2018-06-05T09:53:20.657Z,28.83
2018-06-05T09:55:50.270Z,30.50
2018-06-05T09:58:20.218Z,30.30
2018-06-05T10:00:52.041Z,28.77
2018-06-05T10:03:22.416Z,29.80
2018-06-05T10:05:52.125Z,30.83
2018-06-05T10:08:21.781Z,30.97
2018-06-05T10:10:51.633Z,29.17
2018-06-05T10:13:21.289Z,30.87
2018-06-05T10:15:50.925Z,31.70
2018-06-05T10:18:20.570Z,30.10
2018-06-05T10:20:50.173Z,30.27
2018-06-05T10:23:19.846Z,29.50
2018-06-05T10:25:49.729Z,28.03
2018-06-05T10:28:19.370Z,30.40
2018-06-05T10:30:49.011Z,28.17
2018-06-05T10:33:18.808Z,29.63
2018-06-05T10:35:48.471Z,27.70
2018-06-05T10:38:18.241Z,29.37
2018-06-05T10:40:47.877Z,30.23
2018-06-05T10:43:17.636Z,27.00
2018-06-05T10:45:46.943Z,26.97
2018-06-05T10:48:16.613Z,27.23
2018-06-05T10:50:46.522Z,27.80
2018-06-05T10:53:16.299Z,28.73
2018-06-05T10:55:45.959Z,26.83
2018-06-05T10:58:15.649Z,30.03
2018-06-05T11:00:45.412Z,28.33
2018-06-05T11:03:15.048Z,27.20
2018-06-05T11:05:44.708Z,27.60
2018-06-05T11:08:14.342Z,29.13
2018-06-05T11:10:43.985Z,28.37
2018-06-05T11:13:13.645Z,26.80
2018-06-05T11:15:43.477Z,29.73
2018-06-05T11:18:13.181Z,31.20
2018-06-05T11:20:42.996Z,29.40
2018-06-05T11:23:12.830Z,29.83
2018-06-05T11:25:42.492Z,31.20
2018-06-05T11:28:12.218Z,30.17
2018-06-05T11:30:41.896Z,31.80
2018-06-05T11:33:11.588Z,30.60
2018-06-05T11:35:41.062Z,30.57
2018-06-05T11:38:10.845Z,31.83
2018-06-05T11:40:40.528Z,34.13
2018-06-05T11:43:09.944Z,35.00
2018-06-05T11:45:39.647Z,34.13
2018-06-05T11:48:09.022Z,32.10
2018-06-05T11:50:38.688Z,33.70
2018-06-05T11:53:08.467Z,35.50
2018-06-05T11:55:38.496Z,33.00
2018-06-05T11:58:07.985Z,32.33
2018-06-05T12:00:37.633Z,35.40
2018-06-05T12:03:07.277Z,33.10
2018-06-05T12:05:40.628Z,32.27
2018-06-05T12:08:10.340Z,32.57
2018-06-05T12:10:39.669Z,34.73
2018-06-05T12:13:09.367Z,37.40
2018-06-05T12:15:39.033Z,35.40
2018-06-05T12:18:08.865Z,33.73
2018-06-05T12:20:38.550Z,34.10
2018-06-05T12:23:08.441Z,33.73
2018-06-05T12:25:38.125Z,35.33
2018-06-05T12:28:07.898Z,36.50
2018-06-05T12:30:37.640Z,37.50
2018-06-05T12:33:07.581Z,36.77
2018-06-05T12:35:36.983Z,32.90
2018-06-05T12:38:06.821Z,37.40
2018-06-05T12:40:36.471Z,35.20
2018-06-05T12:43:06.186Z,34.40
2018-06-05T12:45:35.974Z,34.33
2018-06-05T12:48:05.681Z,37.27
2018-06-05T12:50:35.405Z,35.00
2018-06-05T12:53:05.104Z,34.70
2018-06-05T12:55:34.778Z,37.40
2018-06-05T12:58:04.862Z,37.53
2018-06-05T13:00:34.261Z,36.33
2018-06-05T13:03:03.959Z,37.67
2018-06-05T13:05:33.636Z,33.47
2018-06-05T13:08:03.275Z,36.00
2018-06-05T13:10:40.008Z,38.67
2018-06-05T13:13:09.721Z,40.27
2018-06-05T13:15:39.473Z,40.80
2018-06-05T13:18:09.143Z,40.73
2018-06-05T13:20:38.905Z,38.80
2018-06-05T13:23:08.617Z,39.73
2018-06-05T13:25:41.221Z,40.20
2018-06-05T13:28:10.958Z,39.97
2018-06-05T13:30:40.867Z,43.87
2018-06-05T13:33:10.584Z,43.00
2018-06-05T13:35:40.234Z,43.80
2018-06-05T13:38:09.892Z,42.00
2018-06-05T13:40:39.564Z,44.03
2018-06-05T13:43:08.908Z,43.67
2018-06-05T13:45:38.580Z,43.53
2018-06-05T13:48:07.988Z,39.43
2018-06-05T13:50:37.308Z,38.37
2018-06-05T13:53:07.155Z,41.23
2018-06-05T13:55:36.869Z,39.40
2018-06-05T13:58:06.566Z,42.43
2018-06-05T14:00:36.314Z,42.70
2018-06-05T14:03:06.403Z,41.27
2018-06-05T14:05:36.050Z,43.10
2018-06-05T14:08:05.630Z,41.97
2018-06-05T14:10:35.336Z,42.00
2018-06-05T14:13:05.158Z,42.63
2018-06-05T14:15:34.815Z,43.00
2018-06-05T14:18:04.582Z,43.07
2018-06-05T14:20:34.460Z,44.73
2018-06-05T14:23:04.165Z,45.00
2018-06-05T14:25:33.796Z,44.93
2018-06-05T14:28:03.137Z,41.73
2018-06-05T14:30:32.899Z,44.07
2018-06-05T14:33:02.825Z,40.70
2018-06-05T14:35:32.259Z,42.70
2018-06-05T14:38:01.883Z,44.73
2018-06-05T14:40:31.573Z,42.67
2018-06-05T14:43:00.893Z,41.43
2018-06-05T14:45:30.581Z,39.67
2018-06-05T14:48:00.311Z,43.27
2018-06-05T14:50:29.736Z,38.50
2018-06-05T14:52:59.418Z,38.77
2018-06-05T14:55:28.776Z,40.47
2018-06-05T14:57:58.433Z,39.50
2018-06-05T15:00:27.761Z,38.57
2018-06-05T15:02:57.589Z,38.33
2018-06-05T15:05:27.701Z,39.10
2018-06-05T15:07:57.416Z,38.63
2018-06-05T15:10:27.180Z,37.80
2018-06-05T15:12:57.113Z,34.57
2018-06-05T15:15:26.828Z,35.30
2018-06-05T15:17:56.648Z,35.10
2018-06-05T15:20:26.031Z,39.30
2018-06-05T15:22:55.745Z,38.77
2018-06-05T15:25:25.537Z,37.43
2018-06-05T15:27:55.407Z,39.87
2018-06-05T15:30:24.763Z,37.37
2018-06-05T15:32:54.396Z,39.63
2018-06-05T15:35:24.150Z,35.60
2018-06-05T15:37:54.009Z,38.20
2018-06-05T15:40:23.796Z,37.53
2018-06-05T15:42:53.442Z,36.80
2018-06-05T15:45:23.110Z,37.23
2018-06-05T15:47:52.733Z,35.30
2018-06-05T15:50:22.514Z,37.83
2018-06-05T15:52:52.186Z,34.03
2018-06-05T15:55:21.849Z,36.40
2018-06-05T15:57:51.247Z,39.67
2018-06-05T16:00:20.655Z,40.53
2018-06-05T16:02:50.013Z,39.30
2018-06-05T16:05:20.862Z,38.87
2018-06-05T16:07:51.668Z,37.40
2018-06-05T16:10:21.382Z,38.50
2018-06-05T16:12:51.084Z,40.00
2018-06-05T16:15:20.765Z,39.90
2018-06-05T16:17:50.448Z,40.90
2018-06-05T16:20:20.734Z,39.90
2018-06-05T16:22:50.463Z,44.70
2018-06-05T16:25:20.208Z,46.30
2018-06-05T16:27:49.944Z,42.00
2018-06-05T16:30:19.680Z,43.70
2018-06-05T16:32:49.517Z,43.00
2018-06-05T16:35:19.260Z,44.10
2018-06-05T16:37:49.019Z,41.90
2018-06-05T16:40:18.682Z,41.37
2018-06-05T16:42:48.529Z,41.83
2018-06-05T16:45:18.172Z,39.47
2018-06-05T16:47:47.920Z,42.40
2018-06-05T16:50:17.618Z,40.27
2018-06-05T16:52:47.295Z,38.87
2018-06-05T16:55:17.008Z,37.40
2018-06-05T16:57:46.701Z,39.30
2018-06-05T17:00:16.405Z,39.70
2018-06-05T17:02:46.070Z,39.83
2018-06-05T17:05:15.782Z,40.00
2018-06-05T17:07:45.458Z,38.90
2018-06-05T17:10:15.213Z,42.03
2018-06-05T17:12:44.899Z,38.83
2018-06-05T17:15:14.584Z,38.67
2018-06-05T17:17:44.383Z,39.87
2018-06-05T17:20:15.123Z,35.83
2018-06-05T17:22:45.812Z,38.87
2018-06-05T17:25:16.515Z,41.20
2018-06-05T17:27:46.376Z,41.67
2018-06-05T17:30:16.212Z,40.93
2018-06-05T17:32:45.985Z,44.43
2018-06-05T17:35:15.603Z,43.53
2018-06-05T17:37:44.936Z,41.90
2018-06-05T17:40:14.738Z,47.90
2018-06-05T17:42:44.053Z,47.90
2018-06-05T17:45:13.844Z,44.50
2018-06-05T17:47:43.172Z,43.87
2018-06-05T17:50:12.810Z,50.07
2018-06-05T17:52:42.509Z,50.70
2018-06-05T17:55:12.284Z,49.90
2018-06-05T17:57:42.060Z,47.37
2018-06-05T18:00:11.834Z,53.20
2018-06-05T18:02:41.530Z,50.97
2018-06-05T18:05:10.859Z,48.47
2018-06-05T18:07:40.550Z,47.87
2018-06-05T18:10:09.900Z,53.10
2018-06-05T18:12:39.648Z,49.77
2018-06-05T18:15:09.345Z,50.73
2018-06-05T18:17:39.118Z,49.33
2018-06-05T18:20:08.947Z,52.43
2018-06-05T18:22:38.615Z,48.10
2018-06-05T18:25:07.963Z,48.90
2018-06-05T18:27:37.637Z,47.37
2018-06-05T18:30:07.375Z,47.17
2018-06-05T18:32:37.190Z,47.60
2018-06-05T18:35:06.981Z,42.57
2018-06-05T18:37:36.373Z,43.57
2018-06-05T18:40:06.112Z,43.00
2018-06-05T18:42:35.844Z,44.87
2018-06-05T18:45:05.770Z,38.87
2018-06-05T18:47:35.464Z,39.70
2018-06-05T18:50:05.321Z,37.70
2018-06-05T18:52:35.023Z,38.13
2018-06-05T18:55:04.782Z,35.73
2018-06-05T18:57:34.538Z,32.93
2018-06-05T19:00:04.323Z,34.87
2018-06-05T19:02:33.751Z,32.63
2018-06-05T19:05:03.613Z,31.20
2018-06-05T19:07:33.277Z,30.67
2018-06-05T19:10:03.023Z,31.30
2018-06-05T19:12:32.684Z,30.13
2018-06-05T19:15:02.507Z,29.30
2018-06-05T19:17:31.872Z,29.03
2018-06-05T19:20:01.640Z,30.70
2018-06-05T19:22:31.329Z,30.77
2018-06-05T19:25:00.999Z,30.77
2018-06-05T19:27:30.674Z,30.00
2018-06-05T19:30:00.330Z,29.30
2018-06-05T19:32:30.035Z,27.70
2018-06-05T19:34:59.826Z,28.70
2018-06-05T19:37:29.594Z,29.80
2018-06-05T19:39:59.303Z,32.47
2018-06-05T19:42:29.000Z,34.30
2018-06-05T19:44:58.697Z,35.70
2018-06-05T19:47:28.374Z,37.40
2018-06-05T19:49:57.815Z,38.27
2018-06-05T19:52:27.608Z,37.03
2018-06-05T19:54:57.355Z,38.63
2018-06-05T19:57:27.031Z,36.50
2018-06-05T19:59:57.828Z,38.00
2018-06-05T20:02:27.486Z,39.10
2018-06-05T20:04:57.205Z,38.60
2018-06-05T20:07:26.944Z,40.53
2018-06-05T20:09:56.694Z,40.10
2018-06-05T20:12:27.511Z,39.17
2018-06-05T20:14:56.798Z,39.40
2018-06-05T20:17:26.522Z,41.50
2018-06-05T20:19:56.231Z,40.20
2018-06-05T20:22:25.929Z,39.33
2018-06-05T20:24:55.725Z,41.07
2018-06-05T20:27:25.432Z,38.20
2018-06-05T20:29:55.089Z,39.70
2018-06-05T20:32:24.848Z,40.33
2018-06-05T20:34:54.233Z,42.10
2018-06-05T20:37:24.006Z,41.50
2018-06-05T20:39:53.679Z,41.97
2018-06-05T20:42:23.414Z,42.37
2018-06-05T20:44:53.081Z,43.20
2018-06-05T20:47:22.896Z,42.03
2018-06-05T20:49:52.515Z,40.00
2018-06-05T20:52:22.320Z,41.47
2018-06-05T20:54:51.960Z,42.70
2018-06-05T20:57:21.297Z,43.30
2018-06-05T20:59:51.141Z,44.50
2018-06-05T21:02:20.925Z,45.73
2018-06-05T21:04:50.613Z,44.93
2018-06-05T21:07:19.945Z,41.03
2018-06-05T21:09:49.655Z,44.00
2018-06-05T21:12:19.379Z,43.10
2018-06-05T21:14:49.189Z,43.70
2018-06-05T21:17:18.879Z,43.00
2018-06-05T21:19:48.300Z,43.60
2018-06-05T21:22:18.047Z,45.17
2018-06-05T21:24:47.412Z,41.90
2018-06-05T21:27:17.116Z,46.30
2018-06-05T21:29:46.849Z,44.77
2018-06-05T21:32:16.701Z,45.20
2018-06-05T21:34:46.023Z,41.27
2018-06-05T21:37:15.694Z,42.67
2018-06-05T21:39:45.375Z,43.70
2018-06-05T21:42:14.709Z,42.70
2018-06-05T21:44:44.356Z,44.33
2018-06-05T21:47:14.162Z,44.33
2018-06-05T21:49:43.967Z,44.63
2018-06-05T21:52:13.645Z,40.80
2018-06-05T21:54:43.407Z,44.27
2018-06-05T21:57:13.057Z,42.73
2018-06-05T21:59:42.437Z,41.70
2018-06-05T22:02:12.132Z,43.70
2018-06-05T22:04:41.925Z,41.77
2018-06-05T22:07:12.721Z,41.13
2018-06-05T22:09:42.420Z,44.67
2018-06-05T22:12:12.216Z,44.03
2018-06-05T22:14:41.554Z,41.80
2018-06-05T22:17:12.297Z,43.90
2018-06-05T22:19:41.946Z,42.30
2018-06-05T22:22:11.605Z,42.57
2018-06-05T22:24:41.322Z,45.23
2018-06-05T22:27:10.974Z,42.83
2018-06-05T22:29:40.793Z,43.90
2018-06-05T22:32:10.558Z,44.50
2018-06-05T22:34:40.316Z,44.80
2018-06-05T22:37:10.107Z,47.83
2018-06-05T22:39:39.600Z,48.20
2018-06-05T22:42:09.385Z,43.43
2018-06-05T22:44:39.053Z,43.70
2018-06-05T22:47:08.718Z,42.90
2018-06-05T22:49:38.374Z,47.20
2018-06-05T22:52:08.076Z,45.23
2018-06-05T22:54:37.620Z,44.00
2018-06-05T22:57:07.309Z,44.10
2018-06-05T22:59:36.622Z,41.60
2018-06-05T23:02:06.522Z,42.10
2018-06-05T23:04:36.897Z,43.17
2018-06-05T23:07:06.607Z,44.67
2018-06-05T23:09:36.311Z,46.00
2018-06-05T23:12:06.113Z,45.93
2018-06-05T23:14:35.795Z,41.87
2018-06-05T23:17:05.624Z,44.63
2018-06-05T23:19:34.937Z,43.10
2018-06-05T23:22:04.633Z,46.07
2018-06-05T23:24:33.979Z,44.03
2018-06-05T23:27:03.648Z,45.77
2018-06-05T23:29:33.291Z,46.00
2018-06-05T23:32:02.984Z,45.13
2018-06-05T23:34:32.724Z,44.80
2018-06-05T23:37:02.402Z,46.17
2018-06-05T23:39:32.035Z,44.17
2018-06-05T23:42:01.745Z,44.80
2018-06-05T23:44:31.092Z,41.83
2018-06-05T23:47:00.766Z,43.57
2018-06-05T23:49:30.518Z,43.50
2018-06-05T23:52:00.257Z,44.80
2018-06-05T23:54:29.941Z,45.40
2018-06-05T23:56:59.621Z,43.87
2018-06-05T23:59:29.265Z,43.33
